Time;durP1;ratioP1;P1;durP2;ratioP2;P2;SDS_P1;SDS_P2;PMS_P1;PMS_P2;Temp;Humidity;BMP_temperature;BMP_pressure;BME280_temperature;BME280_humidity;BME280_pressure;Samples;Min_cycle;Max_cycle;Signal;HPM_P1;HPM_P2
2021/05/09 00:00:09;;;;;;;922.47;839.38;;;10.30;99.90;;;;;;5048292;28;20413;-68
2021/05/09 00:02:39;;;;;;;912.50;829.70;;;10.10;99.90;;;;;;5066003;28;20425;-68
2021/05/09 00:05:08;;;;;;;925.67;842.38;;;10.20;99.90;;;;;;5068709;28;20443;-69
2021/05/09 00:07:36;;;;;;;947.67;862.90;;;10.10;99.90;;;;;;5069070;28;20488;-70
2021/05/09 00:10:29;;;;;;;939.33;854.70;;;10.10;99.90;;;;;;5055328;28;20417;-68
2021/05/09 00:12:57;;;;;;;940.70;856.78;;;10.20;99.90;;;;;;5056073;28;20654;-68
2021/05/09 00:15:51;;;;;;;924.45;840.92;;;10.20;99.90;;;;;;5052612;28;20401;-68
2021/05/09 00:18:19;;;;;;;923.23;839.80;;;10.20;99.90;;;;;;5052938;28;20487;-71
2021/05/09 00:20:47;;;;;;;923.53;840.28;;;10.10;99.90;;;;;;5054057;28;20413;-68
2021/05/09 00:23:16;;;;;;;937.10;854.30;;;10.30;99.90;;;;;;5035761;28;20413;-69
2021/05/09 00:25:44;;;;;;;912.93;830.03;;;10.30;99.90;;;;;;5053574;28;20467;-68
2021/05/09 00:28:11;;;;;;;918.35;835.25;;;10.30;99.90;;;;;;5019113;28;20402;-69
2021/05/09 00:30:40;;;;;;;916.40;833.40;;;10.30;99.90;;;;;;5052520;28;20472;-69
2021/05/09 00:33:07;;;;;;;915.63;833.00;;;10.20;99.90;;;;;;5042136;28;20421;-69
2021/05/09 00:35:38;;;;;;;914.10;831.20;;;10.20;99.90;;;;;;5068726;28;20428;-68
2021/05/09 00:38:06;;;;;;;916.28;833.58;;;10.20;99.90;;;;;;5053427;28;20467;-68
2021/05/09 00:40:33;;;;;;;662.17;483.73;;;10.10;99.90;;;;;;5037019;28;20191;-69
2021/05/09 00:43:01;;;;;;;869.28;787.35;;;10.10;99.90;;;;;;5050838;28;20485;-69
2021/05/09 00:45:28;;;;;;;912.53;829.08;;;10.10;99.90;;;;;;5050545;28;20413;-68
2021/05/09 00:47:55;;;;;;;920.85;837.22;;;10.20;99.90;;;;;;5035250;28;20436;-68
2021/05/09 00:50:23;;;;;;;913.47;830.60;;;10.10;99.90;;;;;;5035322;28;20808;-69
2021/05/09 00:52:51;;;;;;;914.05;830.95;;;10.10;99.90;;;;;;5052997;28;20413;-69
2021/05/09 00:55:21;;;;;;;911.40;828.58;;;10.10;99.90;;;;;;5018467;28;20491;-68
2021/05/09 00:57:48;;;;;;;911.53;828.83;;;9.90;99.90;;;;;;5052626;28;20426;-68
2021/05/09 01:00:17;;;;;;;916.37;833.57;;;9.80;99.90;;;;;;5051645;28;20427;-68
2021/05/09 01:02:45;;;;;;;915.15;832.35;;;9.80;99.90;;;;;;5052694;28;20860;-68
2021/05/09 01:05:14;;;;;;;903.80;821.42;;;9.80;99.90;;;;;;5034927;28;20436;-69
2021/05/09 01:07:42;;;;;;;905.85;823.42;;;9.80;99.90;;;;;;5052049;28;20421;-68
2021/05/09 01:10:19;;;;;;;909.47;826.58;;;9.70;99.90;;;;;;5035546;28;20413;-69
2021/05/09 01:12:47;;;;;;;904.58;821.72;;;9.60;99.90;;;;;;5034594;28;20896;-69
2021/05/09 01:15:40;;;;;;;902.58;819.95;;;9.70;99.90;;;;;;5034135;28;20975;-69
2021/05/09 01:18:07;;;;;;;897.90;815.50;;;9.60;99.90;;;;;;5034383;28;20865;-69
2021/05/09 01:20:37;;;;;;;892.60;809.80;;;9.60;99.90;;;;;;5034270;28;20413;-69
2021/05/09 01:23:06;;;;;;;892.20;809.70;;;9.50;99.90;;;;;;5034773;28;20406;-71
2021/05/09 01:25:34;;;;;;;889.30;806.80;;;9.40;99.90;;;;;;5051274;28;20471;-69
2021/05/09 01:28:04;;;;;;;891.20;808.90;;;9.40;99.90;;;;;;5034182;28;20430;-68
2021/05/09 01:30:32;;;;;;;880.10;798.05;;;9.40;99.90;;;;;;5033075;28;20467;-70
2021/05/09 01:33:00;;;;;;;884.20;802.00;;;9.30;99.90;;;;;;5034541;28;20420;-69
2021/05/09 01:35:28;;;;;;;870.10;788.40;;;9.20;99.90;;;;;;5018133;28;20421;-68
2021/05/09 01:37:57;;;;;;;872.97;791.38;;;9.20;99.90;;;;;;5052187;28;20927;-68
2021/05/09 01:40:24;;;;;;;880.90;799.00;;;9.10;99.90;;;;;;5052004;28;20408;-69
2021/05/09 01:42:52;;;;;;;866.63;785.42;;;9.10;99.90;;;;;;5034302;28;20404;-68
2021/05/09 01:45:22;;;;;;;862.50;782.58;;;9.20;99.90;;;;;;5051292;28;20416;-69
2021/05/09 01:47:51;;;;;;;634.87;375.90;;;9.10;99.90;;;;;;5036242;28;20207;-68
2021/05/09 01:50:19;;;;;;;780.55;701.88;;;9.10;99.90;;;;;;5052019;28;21008;-69
2021/05/09 01:52:47;;;;;;;815.77;736.37;;;9.10;99.90;;;;;;5034723;28;20475;-68
2021/05/09 01:55:18;;;;;;;824.10;744.60;;;9.10;99.90;;;;;;5054695;28;20504;-68
2021/05/09 01:57:54;;;;;;;817.70;738.45;;;9.00;99.90;;;;;;5054883;28;20900;-69
2021/05/09 02:00:32;;;;;;;820.25;740.85;;;9.00;99.90;;;;;;5037159;28;20437;-68
2021/05/09 02:03:12;;;;;;;826.65;747.15;;;9.00;99.90;;;;;;5021617;28;20413;-68
2021/05/09 02:05:39;;;;;;;819.73;740.43;;;9.00;99.90;;;;;;5056203;28;20933;-68
2021/05/09 02:08:08;;;;;;;803.25;724.45;;;9.00;99.90;;;;;;5038976;28;20437;-68
2021/05/09 02:10:42;;;;;;;801.72;723.03;;;9.20;99.90;;;;;;5038353;28;20421;-68
2021/05/09 02:13:09;;;;;;;819.03;739.78;;;9.10;99.90;;;;;;5055003;28;20900;-70
2021/05/09 02:15:46;;;;;;;798.25;719.90;;;9.00;99.90;;;;;;5020269;28;20516;-68
2021/05/09 02:18:14;;;;;;;792.75;714.30;;;9.00;99.90;;;;;;5021387;28;20398;-69
2021/05/09 02:20:46;;;;;;;782.22;704.53;;;9.00;99.90;;;;;;5037680;28;20726;-68
2021/05/09 02:23:13;;;;;;;782.03;704.13;;;9.00;99.90;;;;;;5055427;28;20539;-71
2021/05/09 02:25:43;;;;;;;787.78;709.13;;;8.90;99.90;;;;;;5055938;28;20408;-71
2021/05/09 02:28:13;;;;;;;784.28;706.08;;;8.90;99.90;;;;;;5055891;28;20819;-68
2021/05/09 02:30:42;;;;;;;791.88;713.60;;;9.00;99.90;;;;;;5053333;28;20409;-69
2021/05/09 02:33:12;;;;;;;792.33;713.78;;;9.00;99.90;;;;;;5037481;28;20790;-68
2021/05/09 02:38:36;;;;;;;783.45;705.50;;;9.20;99.90;;;;;;5055188;28;20405;-68
2021/05/09 02:41:04;;;;;;;786.55;708.72;;;9.20;99.90;;;;;;5054405;28;20504;-68
2021/05/09 02:43:33;;;;;;;778.63;700.83;;;9.10;99.90;;;;;;5053948;28;20522;-69
2021/05/09 02:46:00;;;;;;;808.45;729.90;;;9.20;99.90;;;;;;5054222;28;20421;-68
2021/05/09 02:48:28;;;;;;;792.22;714.42;;;9.10;99.90;;;;;;5053916;28;20460;-68
2021/05/09 02:50:55;;;;;;;838.15;759.58;;;9.10;99.90;;;;;;5055184;28;20428;-68
2021/05/09 02:53:23;;;;;;;839.67;761.87;;;9.20;99.90;;;;;;5055190;28;20789;-68
2021/05/09 02:58:44;;;;;;;845.75;766.55;;;9.10;99.90;;;;;;5054884;28;20500;-68
2021/05/09 03:01:13;;;;;;;807.55;729.25;;;9.00;99.90;;;;;;5035953;28;20416;-68
2021/05/09 03:03:40;;;;;;;799.50;720.80;;;9.00;99.90;;;;;;5053750;28;20409;-71
2021/05/09 03:06:08;;;;;;;794.83;716.63;;;8.90;99.90;;;;;;5019304;28;20506;-71
2021/05/09 03:08:39;;;;;;;782.27;704.37;;;8.90;99.90;;;;;;5054828;28;20412;-68
2021/05/09 03:11:07;;;;;;;814.83;735.65;;;8.80;99.90;;;;;;5053593;28;20788;-68
2021/05/09 03:13:35;;;;;;;793.00;714.90;;;8.80;99.90;;;;;;5054882;28;20520;-68
2021/05/09 03:16:04;;;;;;;811.00;732.07;;;8.90;99.90;;;;;;5036275;28;20410;-69
2021/05/09 03:18:32;;;;;;;796.92;718.63;;;8.90;99.90;;;;;;5054305;28;20428;-69
2021/05/09 03:21:00;;;;;;;789.08;710.92;;;8.80;99.90;;;;;;5054888;28;20566;-71
2021/05/09 03:23:28;;;;;;;797.50;719.20;;;8.80;99.90;;;;;;5036603;28;20491;-68
2021/05/09 03:25:56;;;;;;;783.05;705.00;;;8.90;99.90;;;;;;5053573;28;20500;-68
2021/05/09 03:28:24;;;;;;;788.95;711.15;;;8.90;99.90;;;;;;5054354;28;20397;-68
2021/05/09 03:30:52;;;;;;;792.78;714.65;;;9.00;99.90;;;;;;5051828;28;20943;-70
2021/05/09 03:33:21;;;;;;;793.25;715.28;;;9.10;99.90;;;;;;5053361;28;20405;-68
2021/05/09 03:35:49;;;;;;;833.88;757.03;;;9.00;99.90;;;;;;5055007;28;20471;-68
2021/05/09 03:38:22;;;;;;;840.80;767.40;;;9.00;99.90;;;;;;5054733;28;20413;-70
2021/05/09 03:40:50;;;;;;;849.17;775.00;;;8.90;99.90;;;;;;5066943;28;20409;-68
2021/05/09 03:43:17;;;;;;;853.45;778.85;;;8.80;99.90;;;;;;5064301;28;20440;-68
2021/05/09 03:45:45;;;;;;;855.67;780.20;;;8.70;99.90;;;;;;5052199;28;20496;-68
2021/05/09 03:48:13;;;;;;;847.83;771.47;;;8.70;99.90;;;;;;5054183;28;20480;-70
2021/05/09 03:50:42;;;;;;;849.83;771.73;;;8.80;99.90;;;;;;5054049;28;20417;-68
2021/05/09 03:53:10;;;;;;;847.72;769.13;;;8.80;99.90;;;;;;5052902;28;20418;-68
2021/05/09 03:55:38;;;;;;;802.63;724.25;;;8.90;99.90;;;;;;5053873;28;20472;-67
2021/05/09 03:58:05;;;;;;;813.15;734.42;;;8.90;99.90;;;;;;5036117;28;20437;-67
2021/05/09 04:00:33;;;;;;;812.72;734.10;;;9.00;99.90;;;;;;5051817;28;20520;-68
2021/05/09 04:03:00;;;;;;;809.00;730.38;;;8.90;99.90;;;;;;5053613;28;20409;-68
2021/05/09 04:05:28;;;;;;;827.90;748.60;;;9.00;99.90;;;;;;5035851;28;20710;-68
2021/05/09 04:07:57;;;;;;;810.20;731.70;;;8.90;99.90;;;;;;5053597;28;20405;-69
2021/05/09 04:10:24;;;;;;;783.92;706.03;;;9.00;99.90;;;;;;5052154;28;20426;-68
2021/05/09 04:12:52;;;;;;;823.08;748.30;;;8.90;99.90;;;;;;5053598;28;20403;-69
2021/05/09 04:15:21;;;;;;;632.13;369.30;;;8.80;99.90;;;;;;5053757;28;20549;-69
2021/05/09 04:17:50;;;;;;;792.63;714.83;;;8.90;99.90;;;;;;5052824;28;20495;-69
2021/05/09 04:20:18;;;;;;;496.53;329.60;;;8.90;99.90;;;;;;5054666;28;20742;-69
2021/05/09 04:22:46;;;;;;;502.53;277.10;;;8.90;99.90;;;;;;5054198;28;20757;-68
2021/05/09 04:25:39;;;;;;;496.67;251.97;;;8.90;99.90;;;;;;5054417;28;20474;-68
2021/05/09 04:28:07;;;;;;;673.08;613.05;;;8.80;99.90;;;;;;5052532;28;20405;-68
2021/05/09 04:30:35;;;;;;;747.80;684.05;;;8.80;99.90;;;;;;5052300;28;21376;-68
2021/05/09 04:33:05;;;;;;;532.07;302.97;;;8.90;99.90;;;;;;5054368;28;20272;-69
2021/05/09 04:35:34;;;;;;;522.10;263.17;;;9.00;99.90;;;;;;5053568;28;20495;-68
2021/05/09 04:38:03;;;;;;;662.60;595.35;;;9.20;99.90;;;;;;5035121;28;20414;-68
2021/05/09 04:40:31;;;;;;;749.83;678.85;;;9.30;99.90;;;;;;5051706;28;20417;-68
2021/05/09 04:43:06;;;;;;;765.42;691.55;;;9.40;99.90;;;;;;5051715;28;20951;-69
2021/05/09 04:45:34;;;;;;;790.60;713.78;;;9.50;99.90;;;;;;5050980;28;20471;-69
2021/05/09 04:48:06;;;;;;;796.10;718.50;;;9.60;99.90;;;;;;5053229;28;20394;-68
2021/05/09 04:50:34;;;;;;;797.63;719.83;;;9.70;99.90;;;;;;5052931;28;20475;-68
2021/05/09 04:53:01;;;;;;;806.53;728.92;;;9.80;99.90;;;;;;5052756;28;20467;-68
2021/05/09 04:55:28;;;;;;;805.33;727.53;;;9.90;99.90;;;;;;5034576;28;20405;-68
2021/05/09 04:57:56;;;;;;;807.40;729.60;;;10.00;99.90;;;;;;5052515;28;20917;-68
2021/05/09 05:00:25;;;;;;;806.70;729.15;;;10.10;99.90;;;;;;5052277;28;20421;-68
2021/05/09 05:02:56;;;;;;;813.53;735.80;;;10.30;99.90;;;;;;5052495;28;20412;-68
2021/05/09 05:05:24;;;;;;;837.50;759.20;;;10.30;99.90;;;;;;5053103;28;20436;-69
2021/05/09 05:07:52;;;;;;;856.90;777.97;;;10.40;99.90;;;;;;5051859;28;20722;-68
2021/05/09 05:10:20;;;;;;;892.88;812.97;;;10.50;99.90;;;;;;5052454;28;20421;-68
2021/05/09 05:12:48;;;;;;;899.90;819.70;;;10.60;99.90;;;;;;5017988;28;20406;-68
2021/05/09 05:15:21;;;;;;;982.28;899.53;;;10.80;99.90;;;;;;5016097;28;20407;-68
2021/05/09 05:17:49;;;;;;;1001.20;917.78;;;11.00;99.90;;;;;;5050866;28;20504;-71
2021/05/09 05:20:17;;;;;;;1024.30;940.53;;;11.00;99.90;;;;;;5034311;28;20417;-72
2021/05/09 05:22:44;;;;;;;972.25;890.22;;;11.20;99.90;;;;;;5034575;28;20428;-69
2021/05/09 05:25:37;;;;;;;978.85;896.45;;;11.30;99.90;;;;;;5052543;28;20412;-71
2021/05/09 05:28:06;;;;;;;1009.95;926.55;;;11.50;99.90;;;;;;5052226;28;20431;-68
2021/05/09 05:30:34;;;;;;;982.25;899.65;;;11.50;99.90;;;;;;5037443;28;20904;-68
2021/05/09 05:33:06;;;;;;;993.75;910.83;;;11.70;99.90;;;;;;5056520;28;20750;-69
2021/05/09 05:35:34;;;;;;;987.67;904.88;;;11.80;99.90;;;;;;5038979;28;20417;-68
2021/05/09 05:38:01;;;;;;;982.55;900.00;;;11.90;99.90;;;;;;5057001;28;20757;-71
2021/05/09 05:40:29;;;;;;;1012.50;928.30;;;12.20;99.90;;;;;;5038486;28;20424;-69
2021/05/09 05:42:56;;;;;;;997.80;914.30;;;12.30;99.90;;;;;;5056014;28;20405;-71
2021/05/09 05:45:24;;;;;;;1003.08;919.97;;;12.30;99.90;;;;;;5054945;28;20416;-68
2021/05/09 05:47:51;;;;;;;998.55;915.08;;;12.30;99.90;;;;;;5038228;28;20907;-69
2021/05/09 05:50:19;;;;;;;1009.90;926.15;;;12.50;99.90;;;;;;5021458;28;20407;-71
2021/05/09 05:52:53;;;;;;;1014.95;931.05;;;12.50;99.90;;;;;;5055877;28;20413;-69
2021/05/09 05:55:21;;;;;;;1024.25;940.05;;;12.70;99.90;;;;;;5037991;28;20421;-68
2021/05/09 05:57:48;;;;;;;1014.28;930.45;;;12.70;99.90;;;;;;5038157;28;20429;-69
2021/05/09 06:00:17;;;;;;;976.97;894.50;;;12.80;99.80;;;;;;5054670;28;20496;-68
2021/05/09 06:02:44;;;;;;;971.45;889.05;;;12.80;99.60;;;;;;5038091;28;20501;-69
2021/05/09 06:05:38;;;;;;;975.83;893.30;;;12.90;99.70;;;;;;5054532;28;20421;-68
2021/05/09 06:08:06;;;;;;;978.67;896.10;;;13.00;99.50;;;;;;5037532;28;20398;-68
2021/05/09 06:10:33;;;;;;;1015.65;931.25;;;13.20;99.30;;;;;;5037596;28;20418;-69
2021/05/09 06:13:01;;;;;;;1025.70;941.15;;;13.40;99.50;;;;;;5055777;28;20809;-69
2021/05/09 06:15:29;;;;;;;1048.03;962.53;;;13.60;98.80;;;;;;5054488;28;20414;-68
2021/05/09 06:17:57;;;;;;;1009.30;925.33;;;14.00;98.50;;;;;;5055655;28;20426;-71
2021/05/09 06:20:26;;;;;;;1020.35;935.95;;;14.50;97.80;;;;;;5055224;28;20413;-72
2021/05/09 06:22:57;;;;;;;1011.58;927.70;;;14.60;96.90;;;;;;5056005;28;20428;-71
2021/05/09 06:25:24;;;;;;;1049.93;964.42;;;14.90;96.60;;;;;;5055312;28;20401;-68
2021/05/09 06:28:16;;;;;;;1158.90;999.90;;;15.30;96.10;;;;;;5054463;28;20405;-68
2021/05/09 06:30:45;;;;;;;1119.90;999.90;;;16.20;94.00;;;;;;5054522;28;20409;-68
2021/05/09 06:33:12;;;;;;;1150.90;999.90;;;17.30;91.80;;;;;;5037211;28;20893;-69
2021/05/09 06:35:41;;;;;;;1141.82;999.90;;;17.90;90.00;;;;;;5037832;28;20496;-69
2021/05/09 06:38:10;;;;;;;1099.53;999.90;;;19.00;85.00;;;;;;5055883;28;20463;-71
2021/05/09 06:40:38;;;;;;;1129.32;999.90;;;21.00;79.50;;;;;;5055248;28;20428;-69
2021/05/09 06:43:07;;;;;;;1129.13;999.90;;;21.20;71.70;;;;;;5055149;28;20406;-69
2021/05/09 06:45:35;;;;;;;1137.17;999.90;;;21.80;68.20;;;;;;5056737;28;20762;-69
2021/05/09 06:48:05;;;;;;;1136.33;999.90;;;20.90;67.20;;;;;;5062838;28;20402;-70
2021/05/09 06:50:34;;;;;;;1170.40;999.90;;;20.60;70.50;;;;;;5069088;28;20527;-69
2021/05/09 06:53:03;;;;;;;1174.22;999.90;;;21.40;66.80;;;;;;5069644;28;20572;-71
2021/05/09 06:55:31;;;;;;;1172.05;999.90;;;21.50;67.30;;;;;;5069041;28;20448;-69
2021/05/09 06:58:00;;;;;;;1168.35;999.90;;;20.80;67.50;;;;;;5055167;28;20417;-70
2021/05/09 07:00:28;;;;;;;1184.37;999.90;;;20.60;68.30;;;;;;5069964;28;20445;-72
2021/05/09 07:02:59;;;;;;;1237.10;999.90;;;21.40;65.90;;;;;;5072843;28;20413;-70
2021/05/09 07:05:26;;;;;;;1207.30;999.90;;;22.00;64.60;;;;;;5057684;28;20968;-69
2021/05/09 07:07:55;;;;;;;1212.70;999.90;;;21.10;65.90;;;;;;5055379;28;20488;-71
2021/05/09 07:10:28;;;;;;;1257.07;999.90;;;21.80;64.40;;;;;;5055078;28;20939;-69
2021/05/09 07:12:56;;;;;;;1244.13;999.90;;;23.00;61.60;;;;;;5037731;28;20401;-70
2021/05/09 07:15:27;;;;;;;1258.80;999.90;;;23.50;58.80;;;;;;5019946;28;20410;-72
2021/05/09 07:18:04;;;;;;;1264.72;999.90;;;23.60;58.20;;;;;;5037629;28;20484;-70
2021/05/09 07:20:34;;;;;;;1278.97;999.90;;;25.40;57.20;;;;;;5054182;28;20460;-70
2021/05/09 07:23:02;;;;;;;1276.63;999.90;;;24.50;54.40;;;;;;5055702;28;20445;-72
2021/05/09 07:25:34;;;;;;;1288.47;999.90;;;24.20;56.70;;;;;;5036751;28;20504;-70
2021/05/09 07:28:06;;;;;;;1303.97;999.90;;;25.60;54.20;;;;;;5054557;28;20500;-71
2021/05/09 07:30:34;;;;;;;1296.70;999.90;;;26.00;51.20;;;;;;5048711;28;20412;-72
2021/05/09 07:33:02;;;;;;;1303.88;999.90;;;25.20;51.20;;;;;;5055652;28;20425;-70
2021/05/09 07:35:29;;;;;;;1306.03;999.90;;;25.40;53.40;;;;;;5055138;28;20439;-70
2021/05/09 07:38:00;;;;;;;1318.82;999.90;;;26.20;51.70;;;;;;5036388;28;20880;-70
2021/05/09 07:40:32;;;;;;;1323.40;999.90;;;26.50;50.10;;;;;;5054061;28;20460;-70
2021/05/09 07:43:11;;;;;;;1329.85;999.90;;;25.90;49.80;;;;;;5051804;28;20476;-70
2021/05/09 07:45:39;;;;;;;1338.30;999.90;;;26.40;51.10;;;;;;5034846;28;20813;-70
2021/05/09 07:48:08;;;;;;;1346.05;999.90;;;27.20;49.30;;;;;;5052750;28;20455;-73
2021/05/09 07:50:35;;;;;;;1346.50;999.90;;;26.60;48.60;;;;;;5052837;28;20409;-73
2021/05/09 07:53:04;;;;;;;1355.32;999.90;;;27.40;48.70;;;;;;5051857;28;20901;-68
2021/05/09 07:55:32;;;;;;;1356.80;999.90;;;27.40;47.50;;;;;;5053156;28;20808;-69
2021/05/09 07:57:59;;;;;;;1343.03;999.90;;;26.20;47.30;;;;;;5053089;28;20900;-71
2021/05/09 08:00:28;;;;;;;1333.28;999.90;;;25.20;50.00;;;;;;5052015;28;20467;-69
2021/05/09 08:02:56;;;;;;;1339.32;999.90;;;25.10;50.90;;;;;;5053508;28;20413;-71
2021/05/09 08:05:23;;;;;;;1333.25;999.90;;;25.90;49.90;;;;;;5053557;28;20428;-71
2021/05/09 08:07:52;;;;;;;1336.03;999.90;;;26.00;49.50;;;;;;5035666;28;20496;-70
2021/05/09 08:10:20;;;;;;;1340.55;999.90;;;26.00;49.10;;;;;;5052774;28;20428;-70
2021/05/09 08:12:48;;;;;;;1346.60;999.90;;;27.10;48.00;;;;;;5052845;28;20435;-72
2021/05/09 08:15:15;;;;;;;1359.03;999.90;;;26.80;47.50;;;;;;5051636;28;20467;-71
2021/05/09 08:17:52;;;;;;;1335.45;999.90;;;27.10;47.10;;;;;;5052353;28;20397;-69
2021/05/09 08:20:24;;;;;;;1371.55;999.90;;;26.40;48.00;;;;;;5052209;28;20551;-70
2021/05/09 08:22:53;;;;;;;1361.10;999.90;;;28.20;46.50;;;;;;5050991;28;20409;-70
2021/05/09 08:28:13;;;;;;;1381.22;999.90;;;27.50;46.70;;;;;;5051758;28;20413;-70
2021/05/09 08:30:41;;;;;;;1370.32;999.90;;;29.30;43.30;;;;;;5049634;28;20449;-70
2021/05/09 08:33:09;;;;;;;1381.57;999.90;;;27.70;43.20;;;;;;5052253;28;20395;-70
2021/05/09 08:35:36;;;;;;;1380.03;999.90;;;31.00;42.00;;;;;;5052173;28;20769;-70
2021/05/09 08:38:05;;;;;;;1397.28;999.90;;;29.80;40.30;;;;;;5051659;28;20418;-71
2021/05/09 08:40:37;;;;;;;1392.03;999.90;;;30.30;40.00;;;;;;5050618;28;20417;-70
2021/05/09 08:43:04;;;;;;;1396.72;999.90;;;29.50;40.70;;;;;;5034188;28;20928;-72
2021/05/09 08:45:32;;;;;;;1244.97;999.90;;;30.10;40.10;;;;;;5034275;28;20183;-71
2021/05/09 08:48:01;;;;;;;1391.53;999.90;;;30.50;39.70;;;;;;5051934;28;20409;-71
2021/05/09 08:50:31;;;;;;;1390.87;999.90;;;29.20;40.90;;;;;;5051895;28;20445;-70
2021/05/09 08:52:58;;;;;;;1404.83;999.90;;;29.50;40.40;;;;;;5051967;28;20412;-68
2021/05/09 08:55:26;;;;;;;1389.93;999.90;;;29.90;39.60;;;;;;5051948;28;20480;-68
2021/05/09 08:57:55;;;;;;;1387.38;999.90;;;29.00;40.10;;;;;;5034051;28;20398;-70
2021/05/09 09:00:24;;;;;;;1387.88;999.90;;;28.50;41.50;;;;;;5029929;28;20423;-68
2021/05/09 09:02:59;;;;;;;1386.03;999.90;;;28.60;40.80;;;;;;5013489;28;20411;-72
2021/05/09 09:05:38;;;;;;;1383.63;999.90;;;29.20;42.20;;;;;;5014200;28;20426;-70
2021/05/09 09:08:08;;;;;;;1385.50;999.90;;;29.20;41.60;;;;;;4997438;28;20403;-71
2021/05/09 09:10:40;;;;;;;1379.50;999.90;;;29.10;41.50;;;;;;5013927;28;20830;-73
2021/05/09 09:13:25;;;;;;;1396.35;999.90;;;29.20;41.20;;;;;;5014030;28;20414;-72
2021/05/09 09:15:55;;;;;;;1382.10;999.90;;;29.30;40.00;;;;;;5030531;28;20475;-74
2021/05/09 09:18:28;;;;;;;1387.28;999.90;;;29.20;39.60;;;;;;5013900;28;20506;-73
2021/05/09 09:20:56;;;;;;;1397.22;999.90;;;31.00;40.70;;;;;;5031735;28;20437;-74
2021/05/09 09:23:42;;;;;;;1388.38;999.90;;;30.30;38.10;;;;;;5013982;28;20411;-74
2021/05/09 09:26:34;;;;;;;1391.22;999.90;;;29.40;40.20;;;;;;5031776;28;20407;-74
2021/05/09 09:29:22;;;;;;;1379.80;999.90;;;32.10;39.10;;;;;;5013986;28;20399;-73
2021/05/09 09:31:56;;;;;;;1392.20;999.90;;;32.90;35.50;;;;;;5030839;28;20788;-72
2021/05/09 09:34:36;;;;;;;1397.72;999.90;;;35.70;34.30;;;;;;5031553;28;20407;-73
2021/05/09 09:37:05;;;;;;;1391.70;999.90;;;33.40;32.60;;;;;;5031382;28;20419;-74
2021/05/09 09:39:48;;;;;;;1386.65;999.90;;;31.70;35.80;;;;;;5031365;28;20411;-75
2021/05/09 09:42:16;;;;;;;1386.87;999.90;;;32.10;35.90;;;;;;5014274;28;20419;-73
2021/05/09 09:45:15;;;;;;;1415.00;999.90;;;32.90;36.30;;;;;;5013524;28;20410;-73
2021/05/09 09:47:53;;;;;;;1273.50;999.90;;;31.90;35.80;;;;;;5015148;28;20207;-73
2021/05/09 09:50:35;;;;;;;1408.72;999.90;;;32.70;36.10;;;;;;5014070;28;20410;-73
2021/05/09 09:53:24;;;;;;;1402.97;999.90;;;31.70;36.60;;;;;;5013549;28;20407;-73
2021/05/09 09:56:17;;;;;;;1388.15;999.90;;;30.10;38.10;;;;;;5013801;28;20500;-72
2021/05/09 09:58:51;;;;;;;1390.73;999.90;;;31.30;37.20;;;;;;4996037;28;20410;-72
2021/05/09 10:01:22;;;;;;;1376.63;999.90;;;29.10;38.00;;;;;;5029277;28;20450;-75
2021/05/09 10:03:51;;;;;;;1362.65;999.90;;;27.50;40.30;;;;;;5030504;28;20419;-73
2021/05/09 10:06:20;;;;;;;1361.78;999.90;;;28.50;41.80;;;;;;5029370;28;20426;-74
2021/05/09 10:08:49;;;;;;;1354.53;999.90;;;27.60;42.30;;;;;;5030696;28;20485;-73
2021/05/09 10:11:17;;;;;;;1386.97;999.90;;;28.00;44.00;;;;;;5012948;28;20473;-72
2021/05/09 10:13:46;;;;;;;1380.85;999.90;;;29.00;41.90;;;;;;5031288;28;20411;-72
2021/05/09 10:16:17;;;;;;;1398.47;999.90;;;30.50;39.10;;;;;;5033578;28;20898;-72
2021/05/09 10:18:47;;;;;;;1388.70;999.90;;;30.00;38.90;;;;;;5016946;28;20427;-73
2021/05/09 10:21:15;;;;;;;1365.18;999.90;;;27.90;41.60;;;;;;5034735;28;20513;-72
2021/05/09 10:24:10;;;;;;;1370.47;999.90;;;27.20;43.90;;;;;;5017704;28;20406;-72
2021/05/09 10:26:47;;;;;;;1362.70;999.90;;;27.80;43.90;;;;;;5034557;28;20414;-72
2021/05/09 10:29:48;;;;;;;1219.37;999.90;;;28.80;42.40;;;;;;5036944;28;20188;-75
2021/05/09 10:32:49;;;;;;;1365.60;999.90;;;28.00;41.60;;;;;;5027832;28;20452;-74
2021/05/09 10:35:54;;;;;;;1372.32;999.90;;;27.40;42.90;;;;;;5029315;28;20753;-72
2021/05/09 10:38:22;;;;;;;1369.75;999.90;;;28.80;42.00;;;;;;5035282;28;20548;-72
2021/05/09 10:40:50;;;;;;;1196.43;999.90;;;28.70;41.60;;;;;;5018060;28;20213;-72
2021/05/09 10:43:31;;;;;;;1388.47;999.90;;;28.90;42.50;;;;;;5017456;28;20415;-72
2021/05/09 10:45:58;;;;;;;1392.50;999.90;;;29.70;41.00;;;;;;5033612;28;20911;-72
2021/05/09 10:48:31;;;;;;;1394.22;999.90;;;32.40;38.50;;;;;;5034049;28;20763;-72
2021/05/09 10:51:27;;;;;;;1390.22;999.90;;;31.30;37.30;;;;;;5016551;28;20495;-70
2021/05/09 10:53:55;;;;;;;1258.90;999.90;;;30.30;38.50;;;;;;5035398;28;20189;-75
2021/05/09 10:56:34;;;;;;;1403.28;999.90;;;30.60;39.90;;;;;;5033956;28;20422;-72
2021/05/09 10:59:02;;;;;;;1404.27;999.90;;;30.50;38.50;;;;;;5032886;28;20759;-72
2021/05/09 11:01:32;;;;;;;1403.13;999.90;;;29.60;38.50;;;;;;5033352;28;20419;-73
2021/05/09 11:04:02;;;;;;;1411.15;999.90;;;29.40;39.80;;;;;;5034068;28;20501;-72
2021/05/09 11:06:50;;;;;;;1406.20;999.90;;;29.60;40.70;;;;;;5034741;28;20929;-72
2021/05/09 11:09:35;;;;;;;1392.70;999.90;;;29.20;40.90;;;;;;5028129;28;20415;-72
2021/05/09 11:12:06;;;;;;;1377.72;999.90;;;28.50;41.80;;;;;;5033858;28;20904;-75
2021/05/09 11:14:36;;;;;;;1374.53;999.90;;;28.00;43.20;;;;;;5033821;28;20967;-72
2021/05/09 11:17:07;;;;;;;1368.03;999.90;;;28.70;43.90;;;;;;5033028;28;20782;-74
2021/05/09 11:19:49;;;;;;;1372.13;999.90;;;27.60;44.30;;;;;;5033726;28;20427;-72
2021/05/09 11:22:24;;;;;;;1353.70;999.90;;;27.60;44.10;;;;;;5034117;28;20426;-74
2021/05/09 11:25:00;;;;;;;1373.57;999.90;;;27.40;44.90;;;;;;5000142;28;20404;-72
2021/05/09 11:27:30;;;;;;;1361.47;999.90;;;28.20;42.80;;;;;;5033192;28;20748;-72
2021/05/09 11:30:02;;;;;;;1362.50;999.90;;;27.70;43.60;;;;;;5033549;28;20830;-73
2021/05/09 11:32:32;;;;;;;1355.90;999.90;;;27.90;43.70;;;;;;5035579;28;20410;-72
2021/05/09 11:35:03;;;;;;;1355.17;999.90;;;27.60;42.80;;;;;;5036125;28;20500;-72
2021/05/09 11:37:35;;;;;;;1358.83;999.90;;;28.20;43.20;;;;;;5054601;28;20630;-72
2021/05/09 11:40:10;;;;;;;1355.07;999.90;;;28.30;44.00;;;;;;5036573;28;20405;-73
2021/05/09 11:42:38;;;;;;;1360.47;999.90;;;28.00;44.50;;;;;;5054385;28;20428;-72
2021/05/09 11:45:08;;;;;;;1361.97;999.90;;;28.20;43.30;;;;;;5052667;28;20416;-73
2021/05/09 11:47:36;;;;;;;1352.15;999.90;;;28.10;42.40;;;;;;5053460;28;20766;-73
2021/05/09 11:50:08;;;;;;;1358.55;999.90;;;28.20;42.40;;;;;;5036259;28;20440;-72
2021/05/09 11:52:39;;;;;;;1343.47;999.90;;;28.50;41.50;;;;;;5054660;28;20401;-75
2021/05/09 11:55:09;;;;;;;1352.22;999.90;;;28.70;41.60;;;;;;5054124;28;20493;-72
2021/05/09 11:57:38;;;;;;;1364.30;999.90;;;29.70;40.40;;;;;;5054104;28;20468;-72
2021/05/09 12:00:07;;;;;;;1376.25;999.90;;;29.60;40.80;;;;;;5035073;28;20901;-73
2021/05/09 12:02:35;;;;;;;1368.75;999.90;;;29.70;41.30;;;;;;5051885;28;20493;-73
2021/05/09 12:05:11;;;;;;;1369.53;999.90;;;29.00;41.80;;;;;;5035885;28;20409;-72
2021/05/09 12:07:45;;;;;;;1375.72;999.90;;;29.10;40.40;;;;;;5035862;28;20401;-75
2021/05/09 12:10:18;;;;;;;1375.68;999.90;;;29.30;40.80;;;;;;5053068;28;20444;-73
2021/05/09 12:12:47;;;;;;;1372.78;999.90;;;29.40;40.90;;;;;;5052766;28;20416;-72
2021/05/09 12:15:21;;;;;;;1365.80;999.90;;;29.70;40.30;;;;;;5052723;28;20811;-73
2021/05/09 12:17:53;;;;;;;1363.35;999.90;;;29.90;40.70;;;;;;5052604;28;20398;-75
2021/05/09 12:20:33;;;;;;;1363.60;999.90;;;29.40;41.30;;;;;;5035190;28;20412;-75
2021/05/09 12:23:04;;;;;;;1362.00;999.90;;;28.90;40.50;;;;;;5052687;28;20505;-76
2021/05/09 12:25:40;;;;;;;1360.78;999.90;;;28.50;42.00;;;;;;5052412;28;20417;-74
2021/05/09 12:28:15;;;;;;;1350.22;999.90;;;28.10;41.70;;;;;;5034954;28;20406;-74
2021/05/09 12:30:44;;;;;;;1343.30;999.90;;;27.50;42.90;;;;;;5051728;28;20414;-74
2021/05/09 12:33:12;;;;;;;1361.47;999.90;;;28.00;43.10;;;;;;5052516;28;20966;-73